ADDS METAR Data INFO
IDs: Format: Raw Decoded Include TAF

Data at: 1427 UTC 22 Feb 2018

METAR for:KINF (Inverness Arpt, FL, US)
Text:KINF 221415Z AUTO 10005KT 7SM OVC048 22/21 A3043 RMK AO2
Temperature: 22.0°C ( 72°F)
Dewpoint: 21.0°C ( 70°F) [RH = 94%]
Pressure (altimeter):30.43 inches Hg (1030.6 mb)
Winds:from the E (100 degrees) at 6 MPH (5 knots; 2.6 m/s)
Visibility: 7 sm ( 11 km)
Ceiling:4800 feet AGL
Clouds: overcast cloud deck at 4800 feet AGL
QC Flag:automated observation with no human augmentation